sensor_id;sensor_type;location;lat;lon;timestamp;P1;durP1;ratioP1;P2;durP2;ratioP2
2972;SDS011;1496;51.404;7.232;2024-03-22T00:00:28;40.10;;;19.07;;
2972;SDS011;1496;51.404;7.232;2024-03-22T00:02:54;36.40;;;18.27;;
2972;SDS011;1496;51.404;7.232;2024-03-22T00:05:20;32.80;;;18.07;;
2972;SDS011;1496;51.404;7.232;2024-03-22T00:07:47;35.67;;;17.27;;
2972;SDS011;1496;51.404;7.232;2024-03-22T00:10:13;36.23;;;17.40;;
2972;SDS011;1496;51.404;7.232;2024-03-22T00:12:39;32.97;;;17.93;;
2972;SDS011;1496;51.404;7.232;2024-03-22T00:15:05;33.00;;;18.10;;
2972;SDS011;1496;51.404;7.232;2024-03-22T00:17:31;33.70;;;18.10;;
2972;SDS011;1496;51.404;7.232;2024-03-22T00:19:58;34.80;;;17.37;;
2972;SDS011;1496;51.404;7.232;2024-03-22T00:22:25;33.00;;;16.83;;
2972;SDS011;1496;51.404;7.232;2024-03-22T00:24:50;35.07;;;17.60;;
2972;SDS011;1496;51.404;7.232;2024-03-22T00:27:16;39.13;;;17.80;;
2972;SDS011;1496;51.404;7.232;2024-03-22T00:29:41;30.90;;;16.83;;
2972;SDS011;1496;51.404;7.232;2024-03-22T00:32:07;30.40;;;16.60;;
2972;SDS011;1496;51.404;7.232;2024-03-22T00:34:33;33.23;;;16.57;;
2972;SDS011;1496;51.404;7.232;2024-03-22T00:37:00;33.17;;;16.73;;
2972;SDS011;1496;51.404;7.232;2024-03-22T00:39:29;31.10;;;17.80;;
2972;SDS011;1496;51.404;7.232;2024-03-22T00:41:54;34.77;;;18.10;;
2972;SDS011;1496;51.404;7.232;2024-03-22T00:44:20;32.80;;;17.00;;
2972;SDS011;1496;51.404;7.232;2024-03-22T00:46:46;33.07;;;16.50;;
2972;SDS011;1496;51.404;7.232;2024-03-22T00:49:11;31.43;;;16.63;;
2972;SDS011;1496;51.404;7.232;2024-03-22T00:51:38;32.20;;;16.47;;
2972;SDS011;1496;51.404;7.232;2024-03-22T00:54:04;44.33;;;17.57;;
2972;SDS011;1496;51.404;7.232;2024-03-22T00:56:30;45.07;;;20.50;;
2972;SDS011;1496;51.404;7.232;2024-03-22T00:58:55;29.60;;;16.53;;
2972;SDS011;1496;51.404;7.232;2024-03-22T01:01:21;32.30;;;16.67;;
2972;SDS011;1496;51.404;7.232;2024-03-22T01:03:47;29.93;;;15.57;;
2972;SDS011;1496;51.404;7.232;2024-03-22T01:06:12;34.00;;;18.23;;
2972;SDS011;1496;51.404;7.232;2024-03-22T01:08:38;33.83;;;16.23;;
2972;SDS011;1496;51.404;7.232;2024-03-22T01:11:04;30.10;;;16.37;;
2972;SDS011;1496;51.404;7.232;2024-03-22T01:13:30;33.60;;;16.83;;
2972;SDS011;1496;51.404;7.232;2024-03-22T01:15:55;26.60;;;14.70;;
2972;SDS011;1496;51.404;7.232;2024-03-22T01:18:21;34.43;;;16.50;;
2972;SDS011;1496;51.404;7.232;2024-03-22T01:20:47;36.27;;;17.00;;
2972;SDS011;1496;51.404;7.232;2024-03-22T01:23:12;31.93;;;16.53;;
2972;SDS011;1496;51.404;7.232;2024-03-22T01:25:44;31.03;;;17.10;;
2972;SDS011;1496;51.404;7.232;2024-03-22T01:28:10;29.93;;;16.70;;
2972;SDS011;1496;51.404;7.232;2024-03-22T01:30:36;35.03;;;17.50;;
2972;SDS011;1496;51.404;7.232;2024-03-22T01:33:01;32.57;;;18.03;;
2972;SDS011;1496;51.404;7.232;2024-03-22T01:35:27;32.00;;;15.30;;
2972;SDS011;1496;51.404;7.232;2024-03-22T01:37:53;33.00;;;17.57;;
2972;SDS011;1496;51.404;7.232;2024-03-22T01:40:18;29.73;;;16.50;;
2972;SDS011;1496;51.404;7.232;2024-03-22T01:42:44;37.00;;;17.47;;
2972;SDS011;1496;51.404;7.232;2024-03-22T01:45:11;38.07;;;17.40;;
2972;SDS011;1496;51.404;7.232;2024-03-22T01:47:40;34.70;;;16.60;;
2972;SDS011;1496;51.404;7.232;2024-03-22T01:50:06;36.00;;;16.30;;
2972;SDS011;1496;51.404;7.232;2024-03-22T01:52:32;34.37;;;16.93;;
2972;SDS011;1496;51.404;7.232;2024-03-22T01:55:01;34.57;;;18.17;;
2972;SDS011;1496;51.404;7.232;2024-03-22T01:57:32;36.53;;;16.40;;
2972;SDS011;1496;51.404;7.232;2024-03-22T01:59:59;28.53;;;15.00;;
2972;SDS011;1496;51.404;7.232;2024-03-22T02:02:25;34.03;;;17.93;;
2972;SDS011;1496;51.404;7.232;2024-03-22T02:04:51;30.07;;;16.27;;
2972;SDS011;1496;51.404;7.232;2024-03-22T02:07:17;36.87;;;18.87;;
2972;SDS011;1496;51.404;7.232;2024-03-22T02:09:42;30.00;;;16.10;;
2972;SDS011;1496;51.404;7.232;2024-03-22T02:12:09;37.50;;;15.97;;
2972;SDS011;1496;51.404;7.232;2024-03-22T02:14:34;32.80;;;16.23;;
2972;SDS011;1496;51.404;7.232;2024-03-22T02:17:00;31.53;;;16.40;;
2972;SDS011;1496;51.404;7.232;2024-03-22T02:19:26;32.37;;;16.17;;
2972;SDS011;1496;51.404;7.232;2024-03-22T02:21:51;34.70;;;16.70;;
2972;SDS011;1496;51.404;7.232;2024-03-22T02:24:18;29.73;;;14.70;;
2972;SDS011;1496;51.404;7.232;2024-03-22T02:26:47;31.40;;;16.53;;
2972;SDS011;1496;51.404;7.232;2024-03-22T02:29:13;28.43;;;14.63;;
2972;SDS011;1496;51.404;7.232;2024-03-22T02:31:39;31.13;;;17.03;;
2972;SDS011;1496;51.404;7.232;2024-03-22T02:34:04;30.83;;;16.30;;
2972;SDS011;1496;51.404;7.232;2024-03-22T02:36:30;34.87;;;15.87;;
2972;SDS011;1496;51.404;7.232;2024-03-22T02:38:56;32.03;;;15.27;;
2972;SDS011;1496;51.404;7.232;2024-03-22T02:41:25;33.83;;;17.23;;
2972;SDS011;1496;51.404;7.232;2024-03-22T02:43:50;34.20;;;18.20;;
2972;SDS011;1496;51.404;7.232;2024-03-22T02:46:16;30.97;;;16.80;;
2972;SDS011;1496;51.404;7.232;2024-03-22T02:48:41;29.30;;;14.67;;
2972;SDS011;1496;51.404;7.232;2024-03-22T02:51:07;27.60;;;16.10;;
2972;SDS011;1496;51.404;7.232;2024-03-22T02:53:33;35.43;;;15.70;;
2972;SDS011;1496;51.404;7.232;2024-03-22T02:56:01;28.50;;;14.53;;
2972;SDS011;1496;51.404;7.232;2024-03-22T02:58:27;30.53;;;16.53;;
2972;SDS011;1496;51.404;7.232;2024-03-22T03:00:53;33.30;;;17.60;;
2972;SDS011;1496;51.404;7.232;2024-03-22T03:03:19;34.63;;;17.23;;
2972;SDS011;1496;51.404;7.232;2024-03-22T03:05:44;33.30;;;15.90;;
2972;SDS011;1496;51.404;7.232;2024-03-22T03:08:10;34.83;;;16.97;;
2972;SDS011;1496;51.404;7.232;2024-03-22T03:10:36;34.47;;;17.47;;
2972;SDS011;1496;51.404;7.232;2024-03-22T03:13:01;35.70;;;17.73;;
2972;SDS011;1496;51.404;7.232;2024-03-22T03:15:28;31.93;;;18.20;;
2972;SDS011;1496;51.404;7.232;2024-03-22T03:17:56;33.10;;;17.40;;
2972;SDS011;1496;51.404;7.232;2024-03-22T03:20:22;35.83;;;18.40;;
2972;SDS011;1496;51.404;7.232;2024-03-22T03:22:48;31.17;;;15.83;;
2972;SDS011;1496;51.404;7.232;2024-03-22T03:25:13;33.07;;;16.50;;
2972;SDS011;1496;51.404;7.232;2024-03-22T03:27:39;30.33;;;16.60;;
2972;SDS011;1496;51.404;7.232;2024-03-22T03:30:05;29.13;;;15.43;;
2972;SDS011;1496;51.404;7.232;2024-03-22T03:32:32;31.20;;;16.00;;
2972;SDS011;1496;51.404;7.232;2024-03-22T03:34:57;30.37;;;16.33;;
2972;SDS011;1496;51.404;7.232;2024-03-22T03:37:23;33.70;;;18.47;;
2972;SDS011;1496;51.404;7.232;2024-03-22T03:39:49;31.53;;;16.30;;
2972;SDS011;1496;51.404;7.232;2024-03-22T03:42:14;38.63;;;20.83;;
2972;SDS011;1496;51.404;7.232;2024-03-22T03:44:40;33.67;;;17.00;;
2972;SDS011;1496;51.404;7.232;2024-03-22T03:47:06;29.73;;;16.83;;
2972;SDS011;1496;51.404;7.232;2024-03-22T03:49:32;31.93;;;17.00;;
2972;SDS011;1496;51.404;7.232;2024-03-22T03:51:58;27.33;;;14.63;;
2972;SDS011;1496;51.404;7.232;2024-03-22T03:54:24;30.60;;;17.73;;
2972;SDS011;1496;51.404;7.232;2024-03-22T03:56:50;29.50;;;15.17;;
2972;SDS011;1496;51.404;7.232;2024-03-22T03:59:16;33.80;;;17.23;;
2972;SDS011;1496;51.404;7.232;2024-03-22T04:01:42;27.40;;;15.17;;
2972;SDS011;1496;51.404;7.232;2024-03-22T04:04:08;31.20;;;17.13;;
2972;SDS011;1496;51.404;7.232;2024-03-22T04:06:34;30.60;;;16.93;;
2972;SDS011;1496;51.404;7.232;2024-03-22T04:08:59;32.33;;;16.37;;
2972;SDS011;1496;51.404;7.232;2024-03-22T04:11:25;28.23;;;16.13;;
2972;SDS011;1496;51.404;7.232;2024-03-22T04:13:51;33.20;;;16.77;;
2972;SDS011;1496;51.404;7.232;2024-03-22T04:16:17;25.83;;;14.97;;
2972;SDS011;1496;51.404;7.232;2024-03-22T04:18:43;29.80;;;16.17;;
2972;SDS011;1496;51.404;7.232;2024-03-22T04:21:08;33.00;;;17.63;;
2972;SDS011;1496;51.404;7.232;2024-03-22T04:23:34;28.67;;;17.17;;
2972;SDS011;1496;51.404;7.232;2024-03-22T04:26:00;26.43;;;16.23;;
2972;SDS011;1496;51.404;7.232;2024-03-22T04:28:27;38.50;;;17.33;;
2972;SDS011;1496;51.404;7.232;2024-03-22T04:31:03;36.07;;;17.87;;
2972;SDS011;1496;51.404;7.232;2024-03-22T04:33:30;29.77;;;16.77;;
2972;SDS011;1496;51.404;7.232;2024-03-22T04:35:57;26.60;;;14.70;;
2972;SDS011;1496;51.404;7.232;2024-03-22T04:38:24;28.77;;;16.50;;
2972;SDS011;1496;51.404;7.232;2024-03-22T04:40:50;37.57;;;17.43;;
2972;SDS011;1496;51.404;7.232;2024-03-22T04:43:16;29.47;;;16.00;;
2972;SDS011;1496;51.404;7.232;2024-03-22T04:45:43;29.43;;;14.43;;
2972;SDS011;1496;51.404;7.232;2024-03-22T04:48:09;29.63;;;15.33;;
2972;SDS011;1496;51.404;7.232;2024-03-22T04:50:37;28.47;;;16.27;;
2972;SDS011;1496;51.404;7.232;2024-03-22T04:53:03;21.63;;;14.40;;
2972;SDS011;1496;51.404;7.232;2024-03-22T04:55:28;26.90;;;16.20;;
2972;SDS011;1496;51.404;7.232;2024-03-22T04:57:54;23.87;;;14.70;;
2972;SDS011;1496;51.404;7.232;2024-03-22T05:00:20;27.30;;;16.07;;
2972;SDS011;1496;51.404;7.232;2024-03-22T05:02:46;27.00;;;14.80;;
2972;SDS011;1496;51.404;7.232;2024-03-22T05:05:12;25.07;;;15.27;;
2972;SDS011;1496;51.404;7.232;2024-03-22T05:07:38;25.63;;;15.57;;
2972;SDS011;1496;51.404;7.232;2024-03-22T05:10:04;23.57;;;14.00;;
2972;SDS011;1496;51.404;7.232;2024-03-22T05:12:30;27.43;;;15.90;;
2972;SDS011;1496;51.404;7.232;2024-03-22T05:14:56;25.57;;;15.30;;
2972;SDS011;1496;51.404;7.232;2024-03-22T05:17:22;29.93;;;15.27;;
2972;SDS011;1496;51.404;7.232;2024-03-22T05:19:48;29.77;;;14.57;;
2972;SDS011;1496;51.404;7.232;2024-03-22T05:22:13;29.53;;;15.30;;
2972;SDS011;1496;51.404;7.232;2024-03-22T05:24:40;27.23;;;13.70;;
2972;SDS011;1496;51.404;7.232;2024-03-22T05:27:06;23.70;;;14.50;;
2972;SDS011;1496;51.404;7.232;2024-03-22T05:29:31;24.73;;;15.80;;
2972;SDS011;1496;51.404;7.232;2024-03-22T05:31:57;22.70;;;13.73;;
2972;SDS011;1496;51.404;7.232;2024-03-22T05:34:23;22.13;;;14.23;;
2972;SDS011;1496;51.404;7.232;2024-03-22T05:36:49;22.30;;;14.20;;
2972;SDS011;1496;51.404;7.232;2024-03-22T05:39:14;21.40;;;12.70;;
2972;SDS011;1496;51.404;7.232;2024-03-22T05:41:40;24.53;;;13.80;;
2972;SDS011;1496;51.404;7.232;2024-03-22T05:44:06;21.80;;;12.37;;
2972;SDS011;1496;51.404;7.232;2024-03-22T05:46:33;23.77;;;12.70;;
2972;SDS011;1496;51.404;7.232;2024-03-22T05:48:59;24.40;;;13.47;;
2972;SDS011;1496;51.404;7.232;2024-03-22T05:51:25;25.63;;;13.10;;
2972;SDS011;1496;51.404;7.232;2024-03-22T05:53:51;19.80;;;12.73;;
2972;SDS011;1496;51.404;7.232;2024-03-22T05:56:16;17.87;;;12.10;;
2972;SDS011;1496;51.404;7.232;2024-03-22T05:58:42;21.27;;;12.10;;
2972;SDS011;1496;51.404;7.232;2024-03-22T06:01:08;24.10;;;12.63;;
2972;SDS011;1496;51.404;7.232;2024-03-22T06:03:34;18.07;;;12.47;;
2972;SDS011;1496;51.404;7.232;2024-03-22T06:05:59;20.40;;;12.87;;
2972;SDS011;1496;51.404;7.232;2024-03-22T06:08:28;19.87;;;12.57;;
2972;SDS011;1496;51.404;7.232;2024-03-22T06:10:56;27.13;;;14.27;;
2972;SDS011;1496;51.404;7.232;2024-03-22T06:13:22;22.43;;;13.37;;
2972;SDS011;1496;51.404;7.232;2024-03-22T06:15:48;23.57;;;11.90;;
2972;SDS011;1496;51.404;7.232;2024-03-22T06:18:14;20.07;;;11.47;;
2972;SDS011;1496;51.404;7.232;2024-03-22T06:20:40;25.40;;;13.00;;
2972;SDS011;1496;51.404;7.232;2024-03-22T06:23:06;18.73;;;12.03;;
2972;SDS011;1496;51.404;7.232;2024-03-22T06:25:33;21.37;;;13.30;;
2972;SDS011;1496;51.404;7.232;2024-03-22T06:27:58;22.03;;;12.40;;
2972;SDS011;1496;51.404;7.232;2024-03-22T06:30:24;19.30;;;12.80;;
2972;SDS011;1496;51.404;7.232;2024-03-22T06:32:50;23.47;;;12.10;;
2972;SDS011;1496;51.404;7.232;2024-03-22T06:35:15;20.53;;;12.13;;
2972;SDS011;1496;51.404;7.232;2024-03-22T06:37:41;21.53;;;12.73;;
2972;SDS011;1496;51.404;7.232;2024-03-22T06:40:10;20.90;;;12.30;;
2972;SDS011;1496;51.404;7.232;2024-03-22T06:42:36;20.10;;;11.83;;
2972;SDS011;1496;51.404;7.232;2024-03-22T06:45:02;19.50;;;11.57;;
2972;SDS011;1496;51.404;7.232;2024-03-22T06:47:28;20.53;;;12.60;;
2972;SDS011;1496;51.404;7.232;2024-03-22T06:49:54;15.30;;;11.27;;
2972;SDS011;1496;51.404;7.232;2024-03-22T06:52:19;18.17;;;11.10;;
2972;SDS011;1496;51.404;7.232;2024-03-22T06:54:45;25.60;;;12.60;;
2972;SDS011;1496;51.404;7.232;2024-03-22T06:57:12;17.50;;;11.43;;
2972;SDS011;1496;51.404;7.232;2024-03-22T06:59:37;20.60;;;12.10;;
2972;SDS011;1496;51.404;7.232;2024-03-22T07:02:03;19.40;;;12.10;;
2972;SDS011;1496;51.404;7.232;2024-03-22T07:04:29;19.30;;;12.23;;
2972;SDS011;1496;51.404;7.232;2024-03-22T07:06:55;19.57;;;11.97;;
2972;SDS011;1496;51.404;7.232;2024-03-22T07:09:20;20.77;;;13.07;;
2972;SDS011;1496;51.404;7.232;2024-03-22T07:11:46;20.00;;;12.47;;
2972;SDS011;1496;51.404;7.232;2024-03-22T07:14:12;18.83;;;12.60;;
2972;SDS011;1496;51.404;7.232;2024-03-22T07:16:37;20.60;;;13.57;;
2972;SDS011;1496;51.404;7.232;2024-03-22T07:19:04;22.03;;;14.13;;
2972;SDS011;1496;51.404;7.232;2024-03-22T07:21:30;18.40;;;11.73;;
2972;SDS011;1496;51.404;7.232;2024-03-22T07:23:57;23.20;;;14.50;;
2972;SDS011;1496;51.404;7.232;2024-03-22T07:26:23;22.20;;;13.67;;
2972;SDS011;1496;51.404;7.232;2024-03-22T07:28:48;21.97;;;13.30;;
2972;SDS011;1496;51.404;7.232;2024-03-22T07:31:14;21.57;;;14.20;;
2972;SDS011;1496;51.404;7.232;2024-03-22T07:33:40;23.00;;;13.17;;
2972;SDS011;1496;51.404;7.232;2024-03-22T07:36:06;17.23;;;13.17;;
2972;SDS011;1496;51.404;7.232;2024-03-22T07:38:32;24.03;;;14.77;;
2972;SDS011;1496;51.404;7.232;2024-03-22T07:40:57;20.00;;;13.70;;
2972;SDS011;1496;51.404;7.232;2024-03-22T07:43:24;25.10;;;13.93;;
2972;SDS011;1496;51.404;7.232;2024-03-22T07:45:49;28.10;;;15.30;;
2972;SDS011;1496;51.404;7.232;2024-03-22T07:48:15;24.00;;;13.40;;
2972;SDS011;1496;51.404;7.232;2024-03-22T07:50:41;19.60;;;13.47;;
2972;SDS011;1496;51.404;7.232;2024-03-22T07:53:07;28.37;;;14.50;;
2972;SDS011;1496;51.404;7.232;2024-03-22T07:55:33;25.70;;;14.90;;
2972;SDS011;1496;51.404;7.232;2024-03-22T07:57:59;24.53;;;13.83;;
2972;SDS011;1496;51.404;7.232;2024-03-22T08:00:25;34.23;;;16.17;;
2972;SDS011;1496;51.404;7.232;2024-03-22T08:02:51;32.27;;;16.50;;
2972;SDS011;1496;51.404;7.232;2024-03-22T08:05:17;25.23;;;14.97;;
2972;SDS011;1496;51.404;7.232;2024-03-22T08:07:43;26.50;;;15.67;;
2972;SDS011;1496;51.404;7.232;2024-03-22T08:10:09;32.63;;;17.33;;
2972;SDS011;1496;51.404;7.232;2024-03-22T08:12:35;28.50;;;15.93;;
2972;SDS011;1496;51.404;7.232;2024-03-22T08:15:00;30.97;;;18.27;;
2972;SDS011;1496;51.404;7.232;2024-03-22T08:17:27;26.57;;;17.07;;
2972;SDS011;1496;51.404;7.232;2024-03-22T08:19:53;26.97;;;16.70;;
2972;SDS011;1496;51.404;7.232;2024-03-22T08:22:19;26.67;;;15.90;;
2972;SDS011;1496;51.404;7.232;2024-03-22T08:24:44;30.17;;;18.30;;
2972;SDS011;1496;51.404;7.232;2024-03-22T08:27:10;30.63;;;17.10;;
2972;SDS011;1496;51.404;7.232;2024-03-22T08:29:36;32.23;;;18.27;;
2972;SDS011;1496;51.404;7.232;2024-03-22T08:32:02;29.10;;;17.67;;
2972;SDS011;1496;51.404;7.232;2024-03-22T08:34:29;23.40;;;16.67;;
2972;SDS011;1496;51.404;7.232;2024-03-22T08:36:57;28.00;;;17.43;;
2972;SDS011;1496;51.404;7.232;2024-03-22T08:39:23;26.80;;;17.77;;
2972;SDS011;1496;51.404;7.232;2024-03-22T08:41:49;28.13;;;16.00;;
2972;SDS011;1496;51.404;7.232;2024-03-22T08:44:16;34.23;;;17.07;;
2972;SDS011;1496;51.404;7.232;2024-03-22T08:46:41;25.30;;;15.07;;
2972;SDS011;1496;51.404;7.232;2024-03-22T08:49:07;30.37;;;16.53;;
2972;SDS011;1496;51.404;7.232;2024-03-22T08:51:33;23.93;;;17.17;;
2972;SDS011;1496;51.404;7.232;2024-03-22T08:53:59;27.63;;;15.30;;
2972;SDS011;1496;51.404;7.232;2024-03-22T08:56:25;27.77;;;15.47;;
2972;SDS011;1496;51.404;7.232;2024-03-22T08:58:51;23.23;;;15.30;;
2972;SDS011;1496;51.404;7.232;2024-03-22T09:01:17;24.37;;;14.37;;
2972;SDS011;1496;51.404;7.232;2024-03-22T09:03:43;26.20;;;13.37;;
2972;SDS011;1496;51.404;7.232;2024-03-22T09:06:11;21.20;;;14.67;;
2972;SDS011;1496;51.404;7.232;2024-03-22T09:08:37;24.03;;;13.47;;
2972;SDS011;1496;51.404;7.232;2024-03-22T09:11:03;23.83;;;14.27;;
2972;SDS011;1496;51.404;7.232;2024-03-22T09:13:29;24.70;;;14.67;;
2972;SDS011;1496;51.404;7.232;2024-03-22T09:15:58;21.97;;;13.13;;
2972;SDS011;1496;51.404;7.232;2024-03-22T09:18:24;24.50;;;13.07;;
2972;SDS011;1496;51.404;7.232;2024-03-22T09:20:51;18.53;;;12.07;;
2972;SDS011;1496;51.404;7.232;2024-03-22T09:23:18;19.70;;;12.00;;
2972;SDS011;1496;51.404;7.232;2024-03-22T09:25:43;15.63;;;10.50;;
2972;SDS011;1496;51.404;7.232;2024-03-22T09:28:10;18.00;;;12.30;;
2972;SDS011;1496;51.404;7.232;2024-03-22T09:30:39;22.20;;;12.07;;
2972;SDS011;1496;51.404;7.232;2024-03-22T09:33:07;20.87;;;12.97;;
2972;SDS011;1496;51.404;7.232;2024-03-22T09:35:35;19.03;;;13.30;;
2972;SDS011;1496;51.404;7.232;2024-03-22T09:38:01;22.87;;;12.27;;
2972;SDS011;1496;51.404;7.232;2024-03-22T09:40:27;21.47;;;12.47;;
2972;SDS011;1496;51.404;7.232;2024-03-22T09:42:53;19.93;;;11.37;;
2972;SDS011;1496;51.404;7.232;2024-03-22T09:45:19;17.37;;;11.30;;
2972;SDS011;1496;51.404;7.232;2024-03-22T09:47:45;23.00;;;11.93;;
2972;SDS011;1496;51.404;7.232;2024-03-22T09:50:14;18.83;;;12.00;;
2972;SDS011;1496;51.404;7.232;2024-03-22T09:52:41;19.13;;;10.70;;
2972;SDS011;1496;51.404;7.232;2024-03-22T09:55:07;18.00;;;11.53;;
2972;SDS011;1496;51.404;7.232;2024-03-22T09:57:34;25.60;;;12.70;;
2972;SDS011;1496;51.404;7.232;2024-03-22T10:00:03;18.87;;;11.10;;
2972;SDS011;1496;51.404;7.232;2024-03-22T10:02:39;16.97;;;11.37;;
2972;SDS011;1496;51.404;7.232;2024-03-22T10:05:07;21.70;;;12.17;;
2972;SDS011;1496;51.404;7.232;2024-03-22T10:07:33;23.40;;;12.93;;
2972;SDS011;1496;51.404;7.232;2024-03-22T10:09:59;20.63;;;12.50;;
2972;SDS011;1496;51.404;7.232;2024-03-22T10:12:25;18.83;;;12.03;;
2972;SDS011;1496;51.404;7.232;2024-03-22T10:14:53;20.17;;;12.00;;
2972;SDS011;1496;51.404;7.232;2024-03-22T10:17:19;19.03;;;10.93;;
2972;SDS011;1496;51.404;7.232;2024-03-22T10:19:45;21.50;;;10.10;;
2972;SDS011;1496;51.404;7.232;2024-03-22T10:22:15;22.80;;;11.30;;
2972;SDS011;1496;51.404;7.232;2024-03-22T10:24:42;16.53;;;11.23;;
2972;SDS011;1496;51.404;7.232;2024-03-22T10:27:08;16.67;;;11.30;;
2972;SDS011;1496;51.404;7.232;2024-03-22T10:29:34;25.43;;;11.47;;
2972;SDS011;1496;51.404;7.232;2024-03-22T10:32:01;18.00;;;11.40;;
2972;SDS011;1496;51.404;7.232;2024-03-22T10:34:27;18.07;;;9.77;;
2972;SDS011;1496;51.404;7.232;2024-03-22T10:36:58;13.87;;;9.80;;
2972;SDS011;1496;51.404;7.232;2024-03-22T10:39:26;15.40;;;9.53;;
2972;SDS011;1496;51.404;7.232;2024-03-22T10:41:52;13.40;;;9.77;;
2972;SDS011;1496;51.404;7.232;2024-03-22T10:44:18;15.03;;;9.00;;
2972;SDS011;1496;51.404;7.232;2024-03-22T10:46:47;15.30;;;9.40;;
2972;SDS011;1496;51.404;7.232;2024-03-22T10:49:17;15.57;;;10.70;;
2972;SDS011;1496;51.404;7.232;2024-03-22T10:51:50;20.47;;;10.20;;
2972;SDS011;1496;51.404;7.232;2024-03-22T10:54:24;15.43;;;8.50;;
2972;SDS011;1496;51.404;7.232;2024-03-22T10:56:53;15.83;;;10.43;;
2972;SDS011;1496;51.404;7.232;2024-03-22T10:59:21;23.23;;;11.50;;
2972;SDS011;1496;51.404;7.232;2024-03-22T11:01:48;14.70;;;10.07;;
2972;SDS011;1496;51.404;7.232;2024-03-22T11:04:17;13.97;;;9.50;;
2972;SDS011;1496;51.404;7.232;2024-03-22T11:06:49;16.97;;;10.07;;
2972;SDS011;1496;51.404;7.232;2024-03-22T11:09:21;17.20;;;11.00;;
2972;SDS011;1496;51.404;7.232;2024-03-22T11:11:48;17.60;;;9.97;;
2972;SDS011;1496;51.404;7.232;2024-03-22T11:14:17;19.07;;;9.90;;
2972;SDS011;1496;51.404;7.232;2024-03-22T11:16:43;13.97;;;7.83;;
2972;SDS011;1496;51.404;7.232;2024-03-22T11:19:09;18.20;;;8.77;;
2972;SDS011;1496;51.404;7.232;2024-03-22T11:21:35;10.83;;;8.70;;
2972;SDS011;1496;51.404;7.232;2024-03-22T11:24:01;14.27;;;9.43;;
2972;SDS011;1496;51.404;7.232;2024-03-22T11:26:27;20.53;;;8.60;;
2972;SDS011;1496;51.404;7.232;2024-03-22T11:28:53;13.73;;;9.13;;
2972;SDS011;1496;51.404;7.232;2024-03-22T11:31:18;14.80;;;9.97;;
2972;SDS011;1496;51.404;7.232;2024-03-22T11:33:52;14.63;;;8.83;;
2972;SDS011;1496;51.404;7.232;2024-03-22T11:36:18;13.23;;;9.63;;
2972;SDS011;1496;51.404;7.232;2024-03-22T11:38:44;18.57;;;11.30;;
2972;SDS011;1496;51.404;7.232;2024-03-22T11:41:10;19.00;;;11.17;;
2972;SDS011;1496;51.404;7.232;2024-03-22T11:43:37;23.37;;;11.90;;
2972;SDS011;1496;51.404;7.232;2024-03-22T11:46:03;18.90;;;10.77;;
2972;SDS011;1496;51.404;7.232;2024-03-22T11:48:29;14.33;;;10.00;;
2972;SDS011;1496;51.404;7.232;2024-03-22T11:50:54;20.60;;;11.27;;
2972;SDS011;1496;51.404;7.232;2024-03-22T11:53:21;19.10;;;11.63;;
2972;SDS011;1496;51.404;7.232;2024-03-22T11:55:49;17.00;;;10.80;;
2972;SDS011;1496;51.404;7.232;2024-03-22T11:58:15;17.57;;;9.23;;
2972;SDS011;1496;51.404;7.232;2024-03-22T12:00:43;15.30;;;8.60;;
2972;SDS011;1496;51.404;7.232;2024-03-22T12:03:09;13.07;;;9.70;;
2972;SDS011;1496;51.404;7.232;2024-03-22T12:05:36;11.13;;;7.60;;
2972;SDS011;1496;51.404;7.232;2024-03-22T12:08:02;21.83;;;9.33;;
2972;SDS011;1496;51.404;7.232;2024-03-22T12:10:28;14.20;;;9.20;;
2972;SDS011;1496;51.404;7.232;2024-03-22T12:12:53;14.17;;;9.77;;
2972;SDS011;1496;51.404;7.232;2024-03-22T12:15:19;17.80;;;11.00;;
2972;SDS011;1496;51.404;7.232;2024-03-22T12:17:45;20.80;;;10.37;;
2972;SDS011;1496;51.404;7.232;2024-03-22T12:20:11;14.90;;;10.13;;
2972;SDS011;1496;51.404;7.232;2024-03-22T12:22:37;16.30;;;10.33;;
2972;SDS011;1496;51.404;7.232;2024-03-22T12:25:03;16.33;;;9.43;;
2972;SDS011;1496;51.404;7.232;2024-03-22T12:27:30;17.20;;;10.20;;
2972;SDS011;1496;51.404;7.232;2024-03-22T12:29:56;16.13;;;10.77;;
2972;SDS011;1496;51.404;7.232;2024-03-22T12:32:21;15.70;;;10.10;;
2972;SDS011;1496;51.404;7.232;2024-03-22T12:34:47;17.00;;;10.60;;
2972;SDS011;1496;51.404;7.232;2024-03-22T12:37:13;20.17;;;11.40;;
2972;SDS011;1496;51.404;7.232;2024-03-22T12:39:39;20.23;;;11.13;;
2972;SDS011;1496;51.404;7.232;2024-03-22T12:42:05;15.43;;;11.00;;
2972;SDS011;1496;51.404;7.232;2024-03-22T12:44:31;16.40;;;11.10;;
2972;SDS011;1496;51.404;7.232;2024-03-22T12:46:56;19.47;;;11.47;;
2972;SDS011;1496;51.404;7.232;2024-03-22T12:49:23;15.43;;;11.00;;
2972;SDS011;1496;51.404;7.232;2024-03-22T12:51:48;16.67;;;10.83;;
2972;SDS011;1496;51.404;7.232;2024-03-22T12:54:14;20.53;;;12.93;;
2972;SDS011;1496;51.404;7.232;2024-03-22T12:56:45;17.73;;;11.53;;
2972;SDS011;1496;51.404;7.232;2024-03-22T12:59:10;15.67;;;9.70;;
2972;SDS011;1496;51.404;7.232;2024-03-22T13:01:36;15.47;;;11.43;;
2972;SDS011;1496;51.404;7.232;2024-03-22T13:04:03;20.47;;;11.57;;
2972;SDS011;1496;51.404;7.232;2024-03-22T13:06:29;15.63;;;11.70;;
2972;SDS011;1496;51.404;7.232;2024-03-22T13:08:55;17.30;;;10.27;;
2972;SDS011;1496;51.404;7.232;2024-03-22T13:11:23;15.23;;;9.37;;
2972;SDS011;1496;51.404;7.232;2024-03-22T13:13:49;13.57;;;8.50;;
2972;SDS011;1496;51.404;7.232;2024-03-22T13:16:15;13.77;;;8.97;;
2972;SDS011;1496;51.404;7.232;2024-03-22T13:18:42;13.00;;;8.47;;
2972;SDS011;1496;51.404;7.232;2024-03-22T13:21:07;19.83;;;7.43;;
2972;SDS011;1496;51.404;7.232;2024-03-22T13:23:33;14.17;;;10.23;;
2972;SDS011;1496;51.404;7.232;2024-03-22T13:26:03;13.73;;;8.80;;
2972;SDS011;1496;51.404;7.232;2024-03-22T13:28:29;14.63;;;8.70;;
2972;SDS011;1496;51.404;7.232;2024-03-22T13:31:01;13.97;;;9.83;;
2972;SDS011;1496;51.404;7.232;2024-03-22T13:33:28;15.43;;;9.30;;
2972;SDS011;1496;51.404;7.232;2024-03-22T13:35:57;15.17;;;8.93;;
2972;SDS011;1496;51.404;7.232;2024-03-22T13:38:23;12.70;;;9.17;;
2972;SDS011;1496;51.404;7.232;2024-03-22T13:40:55;13.83;;;8.90;;
2972;SDS011;1496;51.404;7.232;2024-03-22T13:43:22;14.00;;;9.60;;
2972;SDS011;1496;51.404;7.232;2024-03-22T13:45:51;19.27;;;11.07;;
2972;SDS011;1496;51.404;7.232;2024-03-22T13:48:19;14.50;;;10.20;;
2972;SDS011;1496;51.404;7.232;2024-03-22T13:50:50;15.30;;;9.97;;
2972;SDS011;1496;51.404;7.232;2024-03-22T13:53:19;17.10;;;11.80;;
2972;SDS011;1496;51.404;7.232;2024-03-22T13:55:50;18.40;;;11.13;;
2972;SDS011;1496;51.404;7.232;2024-03-22T13:58:18;15.97;;;10.93;;
2972;SDS011;1496;51.404;7.232;2024-03-22T14:00:43;14.87;;;10.17;;
2972;SDS011;1496;51.404;7.232;2024-03-22T14:03:09;17.83;;;11.10;;
2972;SDS011;1496;51.404;7.232;2024-03-22T14:05:35;16.63;;;11.50;;
2972;SDS011;1496;51.404;7.232;2024-03-22T14:08:01;21.90;;;12.67;;
2972;SDS011;1496;51.404;7.232;2024-03-22T14:10:29;18.70;;;11.37;;
2972;SDS011;1496;51.404;7.232;2024-03-22T14:12:57;20.07;;;12.70;;
2972;SDS011;1496;51.404;7.232;2024-03-22T14:15:23;18.90;;;12.00;;
2972;SDS011;1496;51.404;7.232;2024-03-22T14:17:52;21.23;;;11.93;;
2972;SDS011;1496;51.404;7.232;2024-03-22T14:20:18;18.13;;;12.20;;
2972;SDS011;1496;51.404;7.232;2024-03-22T14:22:43;22.33;;;13.40;;
2972;SDS011;1496;51.404;7.232;2024-03-22T14:25:09;19.80;;;13.10;;
2972;SDS011;1496;51.404;7.232;2024-03-22T14:27:35;19.93;;;13.27;;
2972;SDS011;1496;51.404;7.232;2024-03-22T14:30:06;19.27;;;12.00;;
2972;SDS011;1496;51.404;7.232;2024-03-22T14:32:35;18.67;;;11.60;;
2972;SDS011;1496;51.404;7.232;2024-03-22T14:35:01;22.30;;;13.90;;
2972;SDS011;1496;51.404;7.232;2024-03-22T14:37:27;21.33;;;13.80;;
2972;SDS011;1496;51.404;7.232;2024-03-22T14:39:52;23.20;;;13.00;;
2972;SDS011;1496;51.404;7.232;2024-03-22T14:42:18;23.57;;;14.40;;
2972;SDS011;1496;51.404;7.232;2024-03-22T14:44:47;18.50;;;12.77;;